< Typhoon 196615 1966 Season Typhoon 196617 >
Typhoon 196616 (ALICE)
General InformationTrack Information on Google Maps || Disaster Info.ResourceGoogle EarthGE AnimationAtom FeedGeoJSON
Detalied Best Track (Time Zone = UTC)
Year Month Day Hour Lat. Long. Pressure (hPa) Wind (kt) Class Image Chart
1966 8 24 00 15.0 145.0 1008 0 2 -- Chart
1966 8 24 06 15.8 144.7 1004 0 2 -- Chart
1966 8 24 12 16.6 144.6 1004 0 2 -- Chart
1966 8 24 18 17.5 144.5 1002 0 2 -- Chart
1966 8 25 00 18.2 144.5 1000 0 2 -- Chart
1966 8 25 06 20.0 144.5 992 0 9 -- Chart
1966 8 25 12 21.8 144.5 988 0 9 -- Chart
1966 8 25 18 23.6 144.5 984 0 9 -- Chart
1966 8 26 00 25.3 144.5 978 0 9 -- Chart
1966 8 26 06 26.8 144.3 984 0 9 -- Chart
1966 8 26 12 27.6 144.0 984 0 9 -- Chart
1966 8 26 18 28.4 144.0 984 0 9 -- Chart
1966 8 27 00 28.5 145.1 982 0 9 -- Chart
1966 8 27 06 28.3 145.6 982 0 9 -- Chart
1966 8 27 12 28.0 146.0 982 0 9 -- Chart
1966 8 27 18 27.8 145.9 982 0 9 -- Chart
1966 8 28 00 27.7 145.9 982 0 9 -- Chart
1966 8 28 06 27.5 145.7 980 0 9 -- Chart
1966 8 28 12 27.2 145.3 980 0 9 -- Chart
1966 8 28 18 26.9 144.6 980 0 9 -- Chart
1966 8 29 00 26.6 143.8 966 0 9 -- Chart
1966 8 29 06 26.2 142.8 966 0 9 -- Chart
1966 8 29 12 26.1 141.8 970 0 9 -- Chart
1966 8 29 18 26.0 140.8 972 0 9 -- Chart
1966 8 30 00 25.6 139.7 974 0 9 -- Chart
1966 8 30 06 25.5 138.6 970 0 9 -- Chart
1966 8 30 12 25.4 137.6 962 0 9 -- Chart
1966 8 30 18 25.3 136.5 958 0 9 -- Chart
1966 8 31 00 25.2 135.4 954 0 9 -- Chart
1966 8 31 06 25.3 134.2 950 0 9 -- Chart
1966 8 31 12 25.3 133.1 945 0 9 -- Chart
1966 8 31 18 25.4 132.1 940 0 9 -- Chart
1966 9 1 00 25.5 131.1 938 0 9 -- Chart
1966 9 1 06 25.5 129.8 945 0 9 -- Chart
1966 9 1 12 25.7 128.6 955 0 9 -- Chart
1966 9 1 18 26.0 127.5 965 0 9 -- Chart
1966 9 2 00 26.2 126.4 973 0 9 -- Chart
1966 9 2 06 26.5 125.1 973 0 9 -- Chart
1966 9 2 12 26.4 123.9 973 0 9 -- Chart
1966 9 2 18 26.3 122.8 975 0 9 -- Chart
1966 9 3 00 26.5 121.6 960 0 9 -- Chart
1966 9 3 06 26.4 120.0 960 0 9 -- Chart
1966 9 3 12 26.4 118.3 990 0 9 -- Chart
1966 9 3 18 26.3 116.6 998 0 2 -- Chart
1966 9 4 00 26.2 115.6 1000 0 2 -- Chart
Japan Meteorological Agency Best Track Data | Correction Date : 1990-10-17
< Typhoon 196615 1966 Season Typhoon 196617 >

Help